Impacts METAR Board
IDs:

KSFO - San Francisco Intl, CA, US

Updated at: 0900 UTC 25 May 2020
Potential Impact None Slight Moderate High
Time 24/21Z 24/22Z 24/23Z 25/00Z 25/01Z 25/02Z 25/03Z 25/04Z 25/05Z 25/06Z 25/07Z 25/08Z 25/09Z
Temp79 75 72 70 72 71 64 58 58 58 58 58 59
Dewpt52 51 49 47 45 43 48 49 49 48 49 49 48
Altim29.95 29.93 29.92 29.91 29.91 29.90 29.90 29.90 29.92 29.91 29.91 29.90 29.89
VIS10 10 10 10 10 10 10 10 10 10 10 10 10
CIG-- -- -- -- -- -- -- -- -- -- -- -- --
CoverFEWFEWFEWFEWFEWFEWFEWFEWCLRFEWFEWFEWFEW
FltCatVFRVFRVFRVFRVFRVFRVFRVFRVFRVFRVFRVFRVFR
WX--------------------------
WDir300290300290290280290310290290280290290
WSpd12 18 18 22 19 18 14 13 9 5 7 7 6
WGst-- -- -- -- -- -- -- -- -- -- -- -- --
Raw hourly METARs
KSFO 242056Z 30012KT 10SM FEW200 26/11 A2995 RMK AO2 SLP141 T02610111 58017
KSFO 242156Z 29018KT 10SM FEW200 24/11 A2993 RMK AO2 SLP136 T02390106
KSFO 242256Z 30018KT 10SM FEW200 22/09 A2992 RMK AO2 SLP132 T02220094
KSFO 242356Z 29022KT 10SM FEW200 21/08 A2991 RMK AO2 PK WND 29027/2351 SLP129 T02110083 10267 20183 56012
KSFO 250056Z 29019KT 10SM FEW200 22/07 A2991 RMK AO2 PK WND 29028/0001 SLP127 T02220072
KSFO 250156Z 28018KT 10SM FEW200 22/06 A2990 RMK AO2 SLP125 T02170061
KSFO 250256Z 29014KT 10SM FEW200 18/09 A2990 RMK AO2 SLP124 T01780089 56006
KSFO 250356Z 31013KT 10SM FEW180 14/09 A2990 RMK AO2 SLP125 T01440094
KSFO 250456Z 29009KT 10SM CLR 14/09 A2992 RMK AO2 SLP130 T01440094
KSFO 250556Z 29005KT 10SM FEW200 14/09 A2991 RMK AO2 SLP128 T01440089 10228 20144 50005
KSFO 250656Z 28007KT 10SM FEW200 14/09 A2991 RMK AO2 SLP127 T01440094
KSFO 250756Z 29007KT 10SM FEW200 14/09 A2990 RMK AO2 SLP123 T01440094 402670100
KSFO 250856Z 29006KT 10SM FEW200 15/09 A2989 RMK AO2 SLP121 T01500089 58008



Page loaded:  09:18 UTC  |   02:18 AM Pacific  |   03:18 AM Mountain  |   04:18 AM Central  |   05:18 AM Eastern

 

ADVISORIES

FORECASTS

FORECASTS

OBSERVATIONS

USER TOOLS

ABOUT US